createdAt,value
2022-08-26T00:01:06.465Z,101334.75
2022-08-26T00:03:37.680Z,101336.06
2022-08-26T00:06:07.784Z,101334.09
2022-08-26T00:08:37.767Z,101342.56
2022-08-26T00:11:07.981Z,101345.56
2022-08-26T00:13:39.132Z,101341.91
2022-08-26T00:16:09.520Z,101340.09
2022-08-26T00:18:41.172Z,101350.25
2022-08-26T00:21:10.994Z,101345.44
2022-08-26T00:23:40.526Z,101342.44
2022-08-26T00:26:09.719Z,101338.78
2022-08-26T00:28:41.731Z,101342.06
2022-08-26T00:31:11.269Z,101340.25
2022-08-26T00:33:40.948Z,101338.41
2022-08-26T00:36:19.854Z,101332.94
2022-08-26T00:38:49.496Z,101332.09
2022-08-26T00:41:20.621Z,101326.44
2022-08-26T00:43:51.905Z,101334.41
2022-08-26T00:46:26.202Z,101330.97
2022-08-26T00:49:03.981Z,101330.78
2022-08-26T00:51:46.894Z,101331.78
2022-08-26T00:54:17.921Z,101339.09
2022-08-26T00:56:53.766Z,101326.78
2022-08-26T00:59:26.323Z,101325.44
2022-08-26T01:01:55.421Z,101322.59
2022-08-26T01:04:26.136Z,101334.72
2022-08-26T01:06:57.632Z,101331.88
2022-08-26T01:09:27.553Z,101332.91
2022-08-26T01:12:00.058Z,101333.06
2022-08-26T01:14:34.937Z,101330.25
2022-08-26T01:17:07.749Z,101332.91
2022-08-26T01:19:43.919Z,101325.41
2022-08-26T01:22:18.648Z,101327.09
2022-08-26T01:24:50.516Z,101329.41
2022-08-26T01:27:21.964Z,101321.13
2022-08-26T01:29:53.498Z,101335.75
2022-08-26T01:32:24.714Z,101328.78
2022-08-26T01:34:54.529Z,101335.16
2022-08-26T01:37:25.820Z,101334.13
2022-08-26T01:39:57.975Z,101344.28
2022-08-26T01:42:29.138Z,101338.97
2022-08-26T01:45:04.703Z,101333.00
2022-08-26T01:47:36.493Z,101334.16
2022-08-26T01:50:11.713Z,101327.88
2022-08-26T01:52:45.000Z,101331.41
2022-08-26T01:55:33.249Z,101335.25
2022-08-26T01:58:08.785Z,101328.09
2022-08-26T02:00:39.080Z,101324.28
2022-08-26T02:03:18.116Z,101329.59
2022-08-26T02:05:51.405Z,101321.78
2022-08-26T02:08:24.934Z,101332.78
2022-08-26T02:10:56.532Z,101324.63
2022-08-26T02:13:30.068Z,101317.50
2022-08-26T02:16:00.788Z,101325.00
2022-08-26T02:18:31.407Z,101316.34
2022-08-26T02:21:00.788Z,101316.53
2022-08-26T02:23:30.345Z,101317.69
2022-08-26T02:26:08.591Z,101314.19
2022-08-26T02:28:43.872Z,101315.72
2022-08-26T02:31:13.432Z,101319.03
2022-08-26T02:33:43.031Z,101318.03
2022-08-26T02:36:13.509Z,101318.19
2022-08-26T02:38:45.010Z,101311.72
2022-08-26T02:41:16.694Z,101302.25
2022-08-26T02:43:47.214Z,101313.69
2022-08-26T02:46:27.938Z,101311.88
2022-08-26T02:49:01.179Z,101304.25
2022-08-26T02:51:30.350Z,101306.06
2022-08-26T02:53:59.606Z,101314.50
2022-08-26T02:56:33.702Z,101309.03
2022-08-26T02:59:04.801Z,101305.72
2022-08-26T03:01:37.004Z,101303.56
2022-08-26T03:04:09.591Z,101310.56
2022-08-26T03:06:41.479Z,101306.44
2022-08-26T03:09:10.800Z,101302.75
2022-08-26T03:11:49.040Z,101301.75
2022-08-26T03:14:18.320Z,101304.25
2022-08-26T03:16:48.425Z,101297.28
2022-08-26T03:19:17.807Z,101301.94
2022-08-26T03:21:47.350Z,101304.91
2022-08-26T03:24:17.507Z,101290.84
2022-08-26T03:26:52.034Z,101291.16
2022-08-26T03:29:39.511Z,101289.50
2022-08-26T03:32:08.797Z,101292.47
2022-08-26T03:34:37.927Z,101283.03
2022-08-26T03:37:07.804Z,101282.41
2022-08-26T03:39:37.863Z,101279.41
2022-08-26T03:42:09.142Z,101283.06
2022-08-26T03:44:42.272Z,101273.41
2022-08-26T03:47:11.831Z,101279.56
2022-08-26T03:49:41.777Z,101282.41
2022-08-26T03:52:11.445Z,101285.88
2022-08-26T03:54:41.249Z,101293.34
2022-08-26T03:57:14.009Z,101280.53
2022-08-26T03:59:45.863Z,101285.22
2022-08-26T04:02:15.637Z,101291.16
2022-08-26T04:04:45.759Z,101279.91
2022-08-26T04:07:14.882Z,101284.53
2022-08-26T04:09:44.250Z,101282.72
2022-08-26T04:12:15.017Z,101278.91
2022-08-26T04:14:44.115Z,101284.53
2022-08-26T04:17:15.579Z,101277.94
2022-08-26T04:19:45.990Z,101270.63
2022-08-26T04:22:15.942Z,101273.13
2022-08-26T04:24:54.093Z,101267.13
2022-08-26T04:27:24.857Z,101275.09
2022-08-26T04:29:55.334Z,101269.63
2022-08-26T04:32:24.493Z,101270.63
2022-08-26T04:34:53.489Z,101269.97
2022-08-26T04:37:22.726Z,101264.13
2022-08-26T04:39:53.356Z,101261.31
2022-08-26T04:42:26.109Z,101257.19
2022-08-26T04:44:55.566Z,101264.63
2022-08-26T04:47:27.164Z,101266.63
2022-08-26T04:49:59.940Z,101266.59
2022-08-26T04:52:28.999Z,101263.25
2022-08-26T04:54:58.035Z,101266.75
2022-08-26T04:57:28.594Z,101268.91
2022-08-26T04:59:57.919Z,101267.22
2022-08-26T05:02:27.904Z,101266.72
2022-08-26T05:04:57.563Z,101274.06
2022-08-26T05:07:26.712Z,101273.22
2022-08-26T05:09:56.107Z,101274.69
2022-08-26T05:12:25.128Z,101274.31
2022-08-26T05:14:55.937Z,101281.28
2022-08-26T05:17:25.403Z,101282.25
2022-08-26T05:19:55.405Z,101275.22
2022-08-26T05:22:24.620Z,101274.19
2022-08-26T05:24:54.335Z,101271.00
2022-08-26T05:27:23.372Z,101271.31
2022-08-26T05:29:57.051Z,101271.31
2022-08-26T05:32:26.075Z,101272.59
2022-08-26T05:34:57.081Z,101275.88
2022-08-26T05:37:27.663Z,101270.16
2022-08-26T05:39:57.177Z,101264.78
2022-08-26T05:42:27.206Z,101269.91
2022-08-26T05:44:58.796Z,101269.34
2022-08-26T05:47:29.017Z,101272.94
2022-08-26T05:49:58.381Z,101273.22
2022-08-26T05:52:27.684Z,101268.16
2022-08-26T05:54:58.529Z,101275.38
2022-08-26T05:57:29.889Z,101273.81
2022-08-26T06:00:01.767Z,101273.38
2022-08-26T06:02:42.486Z,101273.28
2022-08-26T06:05:12.686Z,101284.59
2022-08-26T06:08:02.567Z,101276.63
2022-08-26T06:10:33.453Z,101285.03
2022-08-26T06:13:11.663Z,101280.53
2022-08-26T06:15:45.506Z,101289.06
2022-08-26T06:18:16.742Z,101280.53
2022-08-26T06:20:53.719Z,101289.28
2022-08-26T06:23:46.531Z,101286.97
2022-08-26T06:26:17.117Z,101267.56
2022-08-26T06:28:46.216Z,101272.19
2022-08-26T06:31:17.905Z,101274.34
2022-08-26T06:33:47.227Z,101275.28
2022-08-26T06:36:19.406Z,101269.84
2022-08-26T06:38:49.519Z,101270.28
2022-08-26T06:41:21.027Z,101272.84
2022-08-26T06:43:51.207Z,101265.25
2022-08-26T06:46:23.232Z,101262.97
2022-08-26T06:48:55.612Z,101254.03
2022-08-26T06:51:26.936Z,101248.84
2022-08-26T06:53:59.555Z,101259.69
2022-08-26T06:56:33.064Z,101262.56
2022-08-26T06:59:02.253Z,101266.53
2022-08-26T07:01:34.628Z,101271.47
2022-08-26T07:04:07.914Z,101271.13
2022-08-26T07:06:41.576Z,101266.59
2022-08-26T07:09:12.607Z,101260.78
2022-08-26T07:11:42.905Z,101264.34
2022-08-26T07:14:12.173Z,101276.69
2022-08-26T07:16:42.650Z,101277.53
2022-08-26T07:19:12.120Z,101270.91
2022-08-26T07:21:41.643Z,101281.81
2022-08-26T07:24:10.995Z,101280.00
2022-08-26T07:26:42.915Z,101276.50
2022-08-26T07:29:12.729Z,101261.63
2022-08-26T07:31:43.273Z,101259.06
2022-08-26T07:34:13.776Z,101266.78
2022-08-26T07:36:42.943Z,101266.19
2022-08-26T07:39:11.933Z,101266.28
2022-08-26T07:41:41.145Z,101260.75
2022-08-26T07:44:12.188Z,101263.66
2022-08-26T07:46:44.020Z,101266.13
2022-08-26T07:49:13.630Z,101269.47
2022-08-26T07:51:43.717Z,101277.34
2022-08-26T07:54:13.648Z,101277.47
2022-08-26T07:56:44.287Z,101276.00
2022-08-26T07:59:15.136Z,101274.06
2022-08-26T08:01:46.123Z,101272.09
2022-08-26T08:04:17.186Z,101278.78
2022-08-26T08:06:47.713Z,101288.56
2022-08-26T08:09:17.187Z,101288.56
2022-08-26T08:11:46.675Z,101290.84
2022-08-26T08:14:18.167Z,101287.78
2022-08-26T08:16:54.636Z,101284.69
2022-08-26T08:19:24.414Z,101283.88
2022-08-26T08:22:06.881Z,101284.72
2022-08-26T08:24:49.879Z,101280.41
2022-08-26T08:27:23.998Z,101284.31
2022-08-26T08:29:55.103Z,101291.63
2022-08-26T08:32:25.938Z,101298.25
2022-08-26T08:34:55.023Z,101292.91
2022-08-26T08:37:24.498Z,101290.94
2022-08-26T08:39:53.717Z,101283.25
2022-08-26T08:42:39.085Z,101292.84
2022-08-26T08:45:13.789Z,101282.06
2022-08-26T08:47:50.574Z,101289.50
2022-08-26T08:50:28.025Z,101288.28
2022-08-26T08:53:11.329Z,101287.69
2022-08-26T08:55:52.566Z,101278.41
2022-08-26T08:58:28.203Z,101270.34
2022-08-26T09:01:04.809Z,101272.66
2022-08-26T09:03:48.583Z,101270.75
2022-08-26T09:06:20.741Z,101270.16
2022-08-26T09:08:51.691Z,101268.00
2022-08-26T09:11:21.733Z,101271.56
2022-08-26T09:13:54.274Z,101273.16
2022-08-26T09:16:28.736Z,101270.84
2022-08-26T09:19:06.848Z,101265.31
2022-08-26T09:21:35.887Z,101266.44
2022-08-26T09:24:05.626Z,101254.00
2022-08-26T09:26:47.435Z,101246.34
2022-08-26T09:29:23.477Z,101254.88
2022-08-26T09:31:54.756Z,101251.22
2022-08-26T09:34:28.468Z,101253.38
2022-08-26T09:36:59.558Z,101258.16
2022-08-26T09:39:33.139Z,101257.47
2022-08-26T09:42:09.567Z,101258.97
2022-08-26T09:44:55.723Z,101262.19
2022-08-26T09:47:31.796Z,101251.19
2022-08-26T09:50:12.578Z,101252.00
2022-08-26T09:52:42.840Z,101249.63
2022-08-26T09:55:22.231Z,101243.53
2022-08-26T09:57:54.030Z,101244.56
2022-08-26T10:00:33.242Z,101241.41
2022-08-26T10:03:05.060Z,101241.97
2022-08-26T10:05:40.520Z,101240.44
2022-08-26T10:08:25.347Z,101246.47
2022-08-26T10:10:56.187Z,101235.19
2022-08-26T10:13:31.325Z,101234.47
2022-08-26T10:16:07.477Z,101228.69
2022-08-26T10:18:42.984Z,101232.25
2022-08-26T10:21:18.697Z,101214.91
2022-08-26T10:23:51.271Z,101213.34
2022-08-26T10:26:28.658Z,101209.28
2022-08-26T10:29:06.266Z,101200.22
2022-08-26T10:31:40.674Z,101200.03
2022-08-26T10:34:12.488Z,101194.28
2022-08-26T10:37:13.662Z,101188.13
2022-08-26T10:39:49.450Z,101190.34
2022-08-26T10:42:33.400Z,101190.59
2022-08-26T10:45:11.899Z,101187.31
2022-08-26T10:47:49.673Z,101187.22
2022-08-26T10:50:19.762Z,101181.78
2022-08-26T10:53:01.283Z,101173.94
2022-08-26T10:55:38.387Z,101176.59
2022-08-26T10:58:33.221Z,101179.63
2022-08-26T11:01:28.342Z,101178.50
2022-08-26T11:04:06.730Z,101179.66
2022-08-26T11:06:37.126Z,101175.28
2022-08-26T11:09:09.821Z,101174.84
2022-08-26T11:11:50.628Z,101169.63
2022-08-26T11:14:42.070Z,101172.44
2022-08-26T11:17:56.294Z,101149.78
2022-08-26T11:20:39.332Z,101150.28
2022-08-26T11:23:41.632Z,101144.16
2022-08-26T11:26:37.605Z,101140.13
2022-08-26T11:29:13.041Z,101135.63
2022-08-26T11:31:57.335Z,101130.50
2022-08-26T11:34:52.863Z,101122.25
2022-08-26T11:37:27.190Z,101119.94
2022-08-26T11:39:57.567Z,101116.00
2022-08-26T11:42:36.253Z,101119.63
2022-08-26T11:45:19.322Z,101105.59
2022-08-26T11:47:49.392Z,101102.72
2022-08-26T11:50:23.291Z,101093.34
2022-08-26T11:53:01.628Z,101088.16
2022-08-26T11:55:31.110Z,101086.06
2022-08-26T11:58:04.980Z,101087.69
2022-08-26T12:00:49.723Z,101083.84
2022-08-26T12:03:23.200Z,101091.78
2022-08-26T12:05:54.459Z,101091.06
2022-08-26T12:08:27.984Z,101071.81
2022-08-26T12:11:05.237Z,101068.75
2022-08-26T12:13:38.897Z,101076.00
2022-08-26T12:16:08.413Z,101069.63
2022-08-26T12:18:39.647Z,101067.38
2022-08-26T12:21:20.214Z,101061.38
2022-08-26T12:23:52.924Z,101070.56
2022-08-26T12:26:26.271Z,101063.94
2022-08-26T12:29:00.942Z,101074.06
2022-08-26T12:31:33.088Z,101061.41
2022-08-26T12:34:04.738Z,101073.28
2022-08-26T12:36:37.332Z,101067.00
2022-08-26T12:39:11.619Z,101078.81
2022-08-26T12:41:45.232Z,101071.41
2022-08-26T12:44:36.637Z,101063.94
2022-08-26T12:47:09.955Z,101062.78
2022-08-26T12:49:40.821Z,101060.06
2022-08-26T12:52:29.800Z,101065.34
2022-08-26T12:55:01.197Z,101065.78
2022-08-26T12:57:32.916Z,101064.19
2022-08-26T13:00:33.178Z,101060.09
2022-08-26T13:03:02.762Z,101055.78
2022-08-26T13:05:35.482Z,101046.41
2022-08-26T13:08:16.583Z,101044.63
2022-08-26T13:10:48.606Z,101041.78
2022-08-26T13:13:17.732Z,101044.94
2022-08-26T13:15:48.166Z,101039.28
2022-08-26T13:18:17.612Z,101039.59
2022-08-26T13:20:46.820Z,101028.00
2022-08-26T13:23:16.357Z,101030.56
2022-08-26T13:25:45.536Z,101020.16
2022-08-26T13:28:14.780Z,101019.78
2022-08-26T13:30:49.662Z,101019.72
2022-08-26T13:33:19.298Z,101017.78
2022-08-26T13:35:49.371Z,101013.38
2022-08-26T13:38:33.567Z,101010.59
2022-08-26T13:41:03.501Z,101019.41
2022-08-26T13:43:32.970Z,101023.69
2022-08-26T13:46:03.709Z,101025.84
2022-08-26T13:48:33.896Z,101025.19
2022-08-26T13:51:03.274Z,101015.38
2022-08-26T13:53:37.405Z,101008.16
2022-08-26T13:56:10.866Z,101007.97
2022-08-26T13:58:40.280Z,101001.34
2022-08-26T14:01:10.757Z,101007.03
2022-08-26T14:03:40.019Z,101005.81
2022-08-26T14:06:09.849Z,101015.44
2022-08-26T14:08:41.536Z,101017.91
2022-08-26T14:11:10.911Z,101019.84
2022-08-26T14:13:40.385Z,101023.44
2022-08-26T14:16:16.289Z,101024.03
2022-08-26T14:18:50.481Z,101025.47
2022-08-26T14:21:20.598Z,101025.03
2022-08-26T14:24:00.810Z,101044.81
2022-08-26T14:26:32.365Z,101049.16
2022-08-26T14:29:04.280Z,101048.59
2022-08-26T14:31:37.877Z,101041.13
2022-08-26T14:34:10.767Z,101049.53
2022-08-26T14:36:43.735Z,101049.50
2022-08-26T14:39:15.233Z,101056.91
2022-08-26T14:41:54.077Z,101046.28
2022-08-26T14:44:26.901Z,101025.16
2022-08-26T14:46:57.883Z,101027.41
2022-08-26T14:49:27.798Z,101034.09
2022-08-26T14:51:56.867Z,101045.66
2022-08-26T14:54:26.264Z,101067.34
2022-08-26T14:56:58.567Z,101067.59
2022-08-26T14:59:37.348Z,101059.91
2022-08-26T15:02:11.496Z,101061.66
2022-08-26T15:04:43.468Z,101069.56
2022-08-26T15:07:12.802Z,101076.78
2022-08-26T15:09:41.976Z,101075.19
2022-08-26T15:12:11.055Z,101065.50
2022-08-26T15:14:40.550Z,101052.34
2022-08-26T15:17:10.894Z,101053.88
2022-08-26T15:19:40.046Z,101051.06
2022-08-26T15:22:09.119Z,101069.47
2022-08-26T15:24:38.228Z,101068.44
2022-08-26T15:27:08.457Z,101072.31
2022-08-26T15:29:37.635Z,101070.75
2022-08-26T15:32:07.071Z,101076.50
2022-08-26T15:34:37.711Z,101075.63
2022-08-26T15:37:07.188Z,101084.75
2022-08-26T15:39:36.518Z,101092.44
2022-08-26T15:42:07.141Z,101084.16
2022-08-26T15:44:37.333Z,101081.34
2022-08-26T15:47:06.968Z,101077.28
2022-08-26T15:49:38.833Z,101074.00
2022-08-26T15:52:11.014Z,101071.78
2022-08-26T15:54:41.069Z,101073.63
2022-08-26T15:57:12.387Z,101068.69
2022-08-26T15:59:43.907Z,101068.63
2022-08-26T16:02:13.644Z,101075.50
2022-08-26T16:04:44.266Z,101072.28
2022-08-26T16:07:14.544Z,101068.16
2022-08-26T16:09:46.130Z,101051.69
2022-08-26T16:12:22.830Z,101049.56
2022-08-26T16:14:54.143Z,101047.28
2022-08-26T16:17:24.305Z,101051.69
2022-08-26T16:19:56.611Z,101045.84
2022-08-26T16:22:26.954Z,101047.19
2022-08-26T16:24:58.975Z,101046.97
2022-08-26T16:27:28.183Z,101048.59
2022-08-26T16:29:57.282Z,101046.41
2022-08-26T16:32:30.739Z,101058.63
2022-08-26T16:35:01.934Z,101062.72
2022-08-26T16:37:31.035Z,101083.91
2022-08-26T16:40:00.633Z,101088.59
2022-08-26T16:42:29.821Z,101100.44
2022-08-26T16:44:59.066Z,101097.38
2022-08-26T16:47:28.329Z,101092.75
2022-08-26T16:49:57.499Z,101088.81
2022-08-26T16:52:31.299Z,101077.06
2022-08-26T16:55:00.884Z,101088.72
2022-08-26T16:57:30.045Z,101088.50
2022-08-26T16:59:59.263Z,101086.84
2022-08-26T17:02:28.469Z,101083.94
2022-08-26T17:04:57.617Z,101102.09
2022-08-26T17:07:28.169Z,101117.53
2022-08-26T17:09:57.823Z,101126.81
2022-08-26T17:12:28.342Z,101122.53
2022-08-26T17:14:57.611Z,101121.72
2022-08-26T17:17:26.975Z,101128.75
2022-08-26T17:19:56.158Z,101133.66
2022-08-26T17:22:25.367Z,101123.97
2022-08-26T17:24:56.371Z,101124.34
2022-08-26T17:27:25.846Z,101128.38
2022-08-26T17:29:54.956Z,101121.88
2022-08-26T17:32:24.027Z,101111.28
2022-08-26T17:34:53.088Z,101108.81
2022-08-26T17:37:22.121Z,101107.09
2022-08-26T17:39:51.315Z,101117.81
2022-08-26T17:42:22.033Z,101119.88
2022-08-26T17:45:01.823Z,101109.78
2022-08-26T17:47:30.868Z,101114.31
2022-08-26T17:50:00.784Z,101126.41
2022-08-26T17:52:30.326Z,101123.06
2022-08-26T17:54:59.689Z,101137.25
2022-08-26T17:57:31.026Z,101139.44
2022-08-26T18:00:00.273Z,101136.53
2022-08-26T18:04:59.902Z,101125.06
2022-08-26T18:07:29.853Z,101128.31
2022-08-26T18:09:58.881Z,101118.56
2022-08-26T18:12:29.376Z,101115.69
2022-08-26T18:14:58.460Z,101111.25
2022-08-26T18:17:27.827Z,101109.47
2022-08-26T18:19:56.942Z,101114.22
2022-08-26T18:22:25.931Z,101117.50
2022-08-26T18:24:58.953Z,101116.22
2022-08-26T18:27:29.859Z,101110.41
2022-08-26T18:30:02.006Z,101101.91
2022-08-26T18:32:31.115Z,101098.41
2022-08-26T18:35:00.359Z,101089.34
2022-08-26T18:37:31.578Z,101086.59
2022-08-26T18:40:02.158Z,101093.16
2022-08-26T18:42:34.620Z,101096.66
2022-08-26T18:45:04.082Z,101097.22
2022-08-26T18:47:34.017Z,101096.88
2022-08-26T18:50:05.480Z,101101.66
2022-08-26T18:52:34.875Z,101101.94
2022-08-26T18:55:04.382Z,101102.69
2022-08-26T18:57:36.369Z,101110.03
2022-08-26T19:00:07.794Z,101113.91
2022-08-26T19:02:36.949Z,101121.19
2022-08-26T19:05:08.590Z,101128.69
2022-08-26T19:07:39.715Z,101139.81
2022-08-26T19:10:09.723Z,101140.13
2022-08-26T19:12:40.469Z,101138.47
2022-08-26T19:15:10.494Z,101141.00
2022-08-26T19:17:42.362Z,101154.34
2022-08-26T19:20:12.633Z,101153.06
2022-08-26T19:22:42.011Z,101151.97
2022-08-26T19:25:11.732Z,101150.56
2022-08-26T19:27:42.412Z,101151.50
2022-08-26T19:30:15.133Z,101152.06
2022-08-26T19:32:44.486Z,101156.47
2022-08-26T19:35:14.551Z,101151.34
2022-08-26T19:37:43.842Z,101147.81
2022-08-26T19:40:14.146Z,101156.00
2022-08-26T19:42:44.633Z,101148.91
2022-08-26T19:45:24.946Z,101152.34
2022-08-26T19:47:54.670Z,101151.97
2022-08-26T19:50:26.028Z,101153.78
2022-08-26T19:52:55.288Z,101150.94
2022-08-26T19:55:29.586Z,101153.72
2022-08-26T19:58:00.103Z,101151.03
2022-08-26T20:00:31.958Z,101148.75
2022-08-26T20:03:01.519Z,101148.63
2022-08-26T20:05:30.647Z,101150.00
2022-08-26T20:07:59.831Z,101153.59
2022-08-26T20:10:29.003Z,101163.41
2022-08-26T20:12:59.596Z,101157.91
2022-08-26T20:15:32.031Z,101162.66
2022-08-26T20:18:01.314Z,101169.09
2022-08-26T20:20:50.618Z,101168.28
2022-08-26T20:23:21.099Z,101159.53
2022-08-26T20:25:50.367Z,101160.06
2022-08-26T20:28:20.848Z,101157.78
2022-08-26T20:30:50.843Z,101162.22
2022-08-26T20:33:20.528Z,101156.81
2022-08-26T20:35:51.855Z,101156.72
2022-08-26T20:38:21.731Z,101149.66
2022-08-26T20:40:51.056Z,101149.94
2022-08-26T20:43:25.886Z,101154.59
2022-08-26T20:45:55.268Z,101151.69
2022-08-26T20:48:24.549Z,101157.75
2022-08-26T20:50:57.184Z,101143.75
2022-08-26T20:53:27.277Z,101148.47
2022-08-26T20:56:00.504Z,101148.72
2022-08-26T20:58:31.693Z,101148.47
2022-08-26T21:01:05.286Z,101149.47
2022-08-26T21:03:37.666Z,101157.38
2022-08-26T21:06:07.523Z,101151.94
2022-08-26T21:08:39.732Z,101160.13
2022-08-26T21:11:12.281Z,101169.94
2022-08-26T21:14:04.057Z,101172.06
2022-08-26T21:16:33.094Z,101171.84
2022-08-26T21:19:02.201Z,101170.47
2022-08-26T21:21:31.358Z,101169.72
2022-08-26T21:24:00.720Z,101165.06
2022-08-26T21:26:29.916Z,101170.19
2022-08-26T21:29:02.595Z,101169.56
2022-08-26T21:31:32.652Z,101173.59
2022-08-26T21:34:01.843Z,101170.47
2022-08-26T21:36:31.114Z,101168.91
2022-08-26T21:39:01.760Z,101171.69
2022-08-26T21:41:31.181Z,101162.41
2022-08-26T21:44:01.676Z,101155.41
2022-08-26T21:46:32.046Z,101151.19
2022-08-26T21:49:02.879Z,101157.44
2022-08-26T21:51:34.630Z,101155.22
2022-08-26T21:54:09.953Z,101154.56
2022-08-26T21:56:44.163Z,101154.84
2022-08-26T21:59:16.249Z,101165.56
2022-08-26T22:01:45.460Z,101163.00
2022-08-26T22:04:14.823Z,101157.16
2022-08-26T22:06:45.883Z,101171.16
2022-08-26T22:09:17.857Z,101166.88
2022-08-26T22:11:47.412Z,101170.63
2022-08-26T22:14:20.493Z,101173.31
2022-08-26T22:16:50.575Z,101168.16
2022-08-26T22:19:20.983Z,101170.88
2022-08-26T22:21:55.128Z,101178.34
2022-08-26T22:24:27.094Z,101176.50
2022-08-26T22:26:57.139Z,101172.16
2022-08-26T22:29:27.924Z,101176.94
2022-08-26T22:31:57.199Z,101181.16
2022-08-26T22:34:26.329Z,101175.63
2022-08-26T22:36:55.535Z,101179.16
2022-08-26T22:39:26.488Z,101171.03
2022-08-26T22:41:57.239Z,101172.69
2022-08-26T22:44:27.619Z,101167.53
2022-08-26T22:46:56.950Z,101168.34
2022-08-26T22:49:26.436Z,101167.66
2022-08-26T22:51:55.904Z,101168.31
2022-08-26T22:54:25.267Z,101165.34
2022-08-26T22:56:55.957Z,101159.03
2022-08-26T22:59:26.606Z,101159.06
2022-08-26T23:01:55.675Z,101165.41
2022-08-26T23:04:24.821Z,101163.88
2022-08-26T23:06:53.911Z,101159.78
2022-08-26T23:09:23.024Z,101157.25
2022-08-26T23:11:52.197Z,101165.03
2022-08-26T23:14:21.377Z,101161.06
2022-08-26T23:16:52.766Z,101166.66
2022-08-26T23:19:23.492Z,101160.06
2022-08-26T23:21:52.876Z,101160.06
2022-08-26T23:24:23.015Z,101159.50
2022-08-26T23:26:52.121Z,101158.69
2022-08-26T23:29:21.300Z,101168.00
2022-08-26T23:31:51.887Z,101167.34
2022-08-26T23:34:38.766Z,101163.06
2022-08-26T23:37:08.742Z,101162.03
2022-08-26T23:39:38.187Z,101157.13
2022-08-26T23:42:08.190Z,101152.59
2022-08-26T23:44:37.702Z,101148.78
2022-08-26T23:47:09.020Z,101151.59
2022-08-26T23:49:38.456Z,101145.31
2022-08-26T23:52:25.843Z,101146.50
2022-08-26T23:54:55.007Z,101138.00
2022-08-26T23:57:26.482Z,101143.31
2022-08-26T23:59:55.803Z,101144.09
